Time,TemperatureF,DewpointF,PressureIn,WindDirection,WindDirectionDegrees,WindSpeedMPH,WindSpeedGustMPH,Humidity,HourlyPrecipIn,Conditions,Clouds,dailyrainin,SolarRadiationWatts/m^2,SoftwareType,DateUTC
2013-03-02 00:00:00,25.0,18.0,-100.00,NNE,22,7.0,-999.0,74,-99.99,,,-99.99,0.000000,,2013-03-02 05:00:00,
2013-03-02 00:32:00,25.0,18.0,-100.00,NNE,22,7.0,-999.0,74,-99.99,,,-99.99,0.000000,,2013-03-02 05:32:00,
2013-03-02 00:42:00,25.0,18.0,-100.00,NNE,22,7.0,-999.0,74,-99.99,,,-99.99,0.000000,,2013-03-02 05:42:00,
2013-03-02 00:52:00,25.0,18.0,-100.00,NNE,22,7.0,-999.0,74,-99.99,,,-99.99,0.000000,,2013-03-02 05:52:00,
2013-03-02 01:00:00,25.0,18.0,-100.00,NNE,22,7.0,-999.0,74,-99.99,,,-99.99,0.000000,,2013-03-02 06:00:00,
2013-03-02 01:42:00,25.0,18.0,-100.00,NNE,22,7.0,-999.0,74,-99.99,,,-99.99,0.000000,,2013-03-02 06:42:00,
2013-03-02 01:52:00,25.0,18.0,-100.00,NNE,22,7.0,-999.0,74,-99.99,,,-99.99,0.000000,,2013-03-02 06:52:00,
2013-03-02 02:00:00,25.0,18.0,-100.00,NNE,22,7.0,-999.0,75,-99.99,,,-99.99,0.000000,,2013-03-02 07:00:00,
2013-03-02 02:32:00,25.0,18.0,-100.00,NNE,22,7.0,-999.0,75,-99.99,,,-99.99,0.000000,,2013-03-02 07:32:00,
2013-03-02 02:42:00,25.0,18.0,-100.00,NNE,22,7.0,-999.0,75,-99.99,,,-99.99,0.000000,,2013-03-02 07:42:00,
2013-03-02 02:52:00,25.0,18.0,-100.00,NNE,22,7.0,-999.0,75,-99.99,,,-99.99,0.000000,,2013-03-02 07:52:00,
2013-03-02 03:00:00,25.0,18.0,-100.00,NNE,22,6.0,-999.0,75,-99.99,,,-99.99,0.000000,,2013-03-02 08:00:00,
2013-03-02 03:43:00,25.0,18.0,-100.00,NNE,22,6.0,-999.0,75,-99.99,,,-99.99,0.000000,,2013-03-02 08:43:00,
2013-03-02 03:52:00,25.0,18.0,-100.00,NNE,22,6.0,-999.0,75,-99.99,,,-99.99,0.000000,,2013-03-02 08:52:00,
2013-03-02 04:00:00,25.0,19.0,-100.00,NNE,22,7.0,-999.0,75,-99.99,,,-99.99,0.000000,,2013-03-02 09:00:00,
2013-03-02 04:42:00,25.0,19.0,-100.00,NNE,22,7.0,-999.0,75,-99.99,,,-99.99,0.000000,,2013-03-02 09:42:00,
2013-03-02 04:52:00,25.0,19.0,-100.00,NNE,22,7.0,-999.0,75,-99.99,,,-99.99,0.000000,,2013-03-02 09:52:00,
2013-03-02 05:00:00,25.0,18.0,-100.00,NNE,22,8.0,-999.0,76,-99.99,,,-99.99,0.000000,,2013-03-02 10:00:00,
2013-03-02 05:43:00,25.0,18.0,-100.00,NNE,22,8.0,-999.0,76,-99.99,,,-99.99,0.000000,,2013-03-02 10:43:00,
2013-03-02 05:52:00,25.0,18.0,-100.00,NNE,22,8.0,-999.0,76,-99.99,,,-99.99,0.000000,,2013-03-02 10:52:00,
2013-03-02 06:00:00,25.0,18.0,-100.00,NNE,22,7.0,-999.0,76,-99.99,,,-99.99,0.000000,,2013-03-02 11:00:00,
2013-03-02 06:42:00,25.0,18.0,-100.00,NNE,22,7.0,-999.0,76,-99.99,,,-99.99,0.000000,,2013-03-02 11:42:00,
2013-03-02 06:52:00,25.0,18.0,-100.00,NNE,22,7.0,-999.0,76,-99.99,,,-99.99,0.000000,,2013-03-02 11:52:00,
2013-03-02 07:00:00,25.0,19.0,-100.00,NNE,22,8.0,-999.0,78,-99.99,,,-99.99,0.000000,,2013-03-02 12:00:00,
2013-03-02 07:43:00,25.0,19.0,-100.00,NNE,22,8.0,-999.0,78,-99.99,,,-99.99,0.000000,,2013-03-02 12:43:00,
2013-03-02 07:53:00,25.0,19.0,-100.00,NNE,22,8.0,-999.0,78,-99.99,,,-99.99,0.000000,,2013-03-02 12:53:00,
2013-03-02 08:00:00,25.0,19.0,-100.00,NNE,22,8.0,-999.0,79,-99.99,,,-99.99,5.800000,,2013-03-02 13:00:00,
2013-03-02 08:42:00,25.0,19.0,-100.00,NNE,22,8.0,-999.0,79,-99.99,,,-99.99,5.800000,,2013-03-02 13:42:00,
2013-03-02 08:53:00,25.0,19.0,-100.00,NNE,22,8.0,-999.0,79,-99.99,,,-99.99,5.800000,,2013-03-02 13:53:00,
2013-03-02 09:00:00,24.0,19.0,-100.00,NNE,22,8.0,-999.0,80,-99.99,,,-99.99,37.119999,,2013-03-02 14:00:00,
2013-03-02 09:32:00,24.0,19.0,-100.00,NNE,22,8.0,-999.0,80,-99.99,,,-99.99,37.119999,,2013-03-02 14:32:00,
2013-03-02 09:42:00,24.0,19.0,-100.00,NNE,22,8.0,-999.0,80,-99.99,,,-99.99,37.119999,,2013-03-02 14:42:00,
2013-03-02 09:52:00,24.0,19.0,-100.00,NNE,22,8.0,-999.0,80,-99.99,,,-99.99,37.119999,,2013-03-02 14:52:00,
2013-03-02 10:00:00,24.0,19.0,-100.00,NNE,22,9.0,-999.0,80,-99.99,,,-99.99,119.480003,,2013-03-02 15:00:00,
2013-03-02 10:42:00,24.0,19.0,-100.00,NNE,22,9.0,-999.0,80,-99.99,,,-99.99,119.480003,,2013-03-02 15:42:00,
2013-03-02 10:52:00,24.0,19.0,-100.00,NNE,22,9.0,-999.0,80,-99.99,,,-99.99,119.480003,,2013-03-02 15:52:00,
2013-03-02 11:00:00,25.0,19.0,-100.00,NNE,22,8.0,-999.0,78,-99.99,,,-99.99,187.919998,,2013-03-02 16:00:00,
2013-03-02 11:42:00,25.0,19.0,-100.00,NNE,22,8.0,-999.0,78,-99.99,,,-99.99,187.919998,,2013-03-02 16:42:00,
2013-03-02 11:52:00,25.0,19.0,-100.00,NNE,22,8.0,-999.0,78,-99.99,,,-99.99,187.919998,,2013-03-02 16:52:00,
2013-03-02 12:00:00,26.0,20.0,-100.00,NNE,22,8.0,-999.0,76,-99.99,,,-99.99,228.520004,,2013-03-02 17:00:00,
2013-03-02 12:42:00,26.0,20.0,-100.00,NNE,22,8.0,-999.0,76,-99.99,,,-99.99,228.520004,,2013-03-02 17:42:00,
2013-03-02 12:52:00,26.0,20.0,-100.00,NNE,22,8.0,-999.0,76,-99.99,,,-99.99,228.520004,,2013-03-02 17:52:00,
2013-03-02 13:00:00,26.0,19.0,-100.00,North,0,8.0,-999.0,73,-99.99,,,-99.99,191.399994,,2013-03-02 18:00:00,
2013-03-02 13:32:00,26.0,19.0,-100.00,North,0,8.0,-999.0,73,-99.99,,,-99.99,191.399994,,2013-03-02 18:32:00,
2013-03-02 13:42:00,26.0,19.0,-100.00,North,0,8.0,-999.0,73,-99.99,,,-99.99,191.399994,,2013-03-02 18:42:00,
2013-03-02 13:52:00,26.0,19.0,-100.00,North,0,8.0,-999.0,73,-99.99,,,-99.99,191.399994,,2013-03-02 18:52:00,
2013-03-02 14:00:00,26.0,18.0,-100.00,North,0,8.0,-999.0,71,-99.99,,,-99.99,127.599998,,2013-03-02 19:00:00,
2013-03-02 14:43:00,26.0,18.0,-100.00,North,0,8.0,-999.0,71,-99.99,,,-99.99,127.599998,,2013-03-02 19:43:00,
2013-03-02 14:52:00,26.0,18.0,-100.00,North,0,8.0,-999.0,71,-99.99,,,-99.99,127.599998,,2013-03-02 19:52:00,
2013-03-02 15:00:00,26.0,18.0,-100.00,North,0,7.0,-999.0,71,-99.99,,,-99.99,112.519997,,2013-03-02 20:00:00,
2013-03-02 15:42:00,26.0,18.0,-100.00,North,0,7.0,-999.0,71,-99.99,,,-99.99,112.519997,,2013-03-02 20:42:00,
2013-03-02 15:53:00,26.0,18.0,-100.00,North,0,7.0,-999.0,71,-99.99,,,-99.99,112.519997,,2013-03-02 20:53:00,
2013-03-02 16:00:00,26.0,18.0,-100.00,North,0,8.0,-999.0,72,-99.99,,,-99.99,80.040001,,2013-03-02 21:00:00,
2013-03-02 16:42:00,26.0,18.0,-100.00,North,0,8.0,-999.0,72,-99.99,,,-99.99,80.040001,,2013-03-02 21:42:00,
2013-03-02 16:52:00,26.0,18.0,-100.00,North,0,8.0,-999.0,72,-99.99,,,-99.99,80.040001,,2013-03-02 21:52:00,
2013-03-02 17:00:00,26.0,18.0,-100.00,North,0,8.0,-999.0,70,-99.99,,,-99.99,45.240002,,2013-03-02 22:00:00,
2013-03-02 17:42:00,26.0,18.0,-100.00,North,0,8.0,-999.0,70,-99.99,,,-99.99,45.240002,,2013-03-02 22:42:00,
2013-03-02 17:52:00,26.0,18.0,-100.00,North,0,8.0,-999.0,70,-99.99,,,-99.99,45.240002,,2013-03-02 22:52:00,
2013-03-02 18:00:00,26.0,17.0,-100.00,North,0,7.0,-999.0,70,-99.99,,,-99.99,17.400000,,2013-03-02 23:00:00,
2013-03-02 18:42:00,26.0,17.0,-100.00,North,0,7.0,-999.0,70,-99.99,,,-99.99,17.400000,,2013-03-02 23:42:00,
2013-03-02 18:52:00,26.0,17.0,-100.00,North,0,7.0,-999.0,70,-99.99,,,-99.99,17.400000,,2013-03-02 23:52:00,
2013-03-02 19:00:00,25.0,17.0,-100.00,North,0,8.0,-999.0,70,-99.99,,,-99.99,1.160000,,2013-03-03 00:00:00,
2013-03-02 19:42:00,25.0,17.0,-100.00,North,0,8.0,-999.0,70,-99.99,,,-99.99,1.160000,,2013-03-03 00:42:00,
2013-03-02 19:53:00,25.0,17.0,-100.00,North,0,8.0,-999.0,70,-99.99,,,-99.99,1.160000,,2013-03-03 00:53:00,
2013-03-02 20:00:00,25.0,16.0,-100.00,North,0,8.0,-999.0,70,-99.99,,,-99.99,0.000000,,2013-03-03 01:00:00,
2013-03-02 20:42:00,25.0,16.0,-100.00,North,0,8.0,-999.0,70,-99.99,,,-99.99,0.000000,,2013-03-03 01:42:00,
2013-03-02 20:52:00,25.0,16.0,-100.00,North,0,8.0,-999.0,70,-99.99,,,-99.99,0.000000,,2013-03-03 01:52:00,
2013-03-02 21:00:00,24.0,16.0,-100.00,North,0,8.0,-999.0,70,-99.99,,,-99.99,0.000000,,2013-03-03 02:00:00,
2013-03-02 21:42:00,24.0,16.0,-100.00,North,0,8.0,-999.0,70,-99.99,,,-99.99,0.000000,,2013-03-03 02:42:00,
2013-03-02 21:52:00,24.0,16.0,-100.00,North,0,8.0,-999.0,70,-99.99,,,-99.99,0.000000,,2013-03-03 02:52:00,
2013-03-02 22:00:00,24.0,16.0,-100.00,SSW,202,7.0,-999.0,71,-99.99,,,-99.99,0.000000,,2013-03-03 03:00:00,
2013-03-02 22:42:00,24.0,16.0,-100.00,SSW,202,7.0,-999.0,71,-99.99,,,-99.99,0.000000,,2013-03-03 03:42:00,
2013-03-02 22:52:00,24.0,16.0,-100.00,SSW,202,7.0,-999.0,71,-99.99,,,-99.99,0.000000,,2013-03-03 03:52:00,
2013-03-02 23:00:00,24.0,17.0,-100.00,NNW,337,7.0,-999.0,74,-99.99,,,-99.99,0.000000,,2013-03-03 04:00:00,
2013-03-02 23:42:00,24.0,17.0,-100.00,NNW,337,7.0,-999.0,74,-99.99,,,-99.99,0.000000,,2013-03-03 04:42:00,
2013-03-02 23:52:00,24.0,17.0,-100.00,NNW,337,7.0,-999.0,74,-99.99,,,-99.99,0.000000,,2013-03-03 04:52:00,